createdAt,value
2022-10-23T00:01:51.338Z,79.74
2022-10-23T00:04:22.096Z,79.80
2022-10-23T00:06:51.586Z,79.72
2022-10-23T00:09:23.554Z,79.82
2022-10-23T00:11:52.866Z,79.85
2022-10-23T00:14:24.926Z,79.79
2022-10-23T00:16:54.033Z,79.82
2022-10-23T00:19:22.477Z,79.83
2022-10-23T00:21:51.339Z,79.68
2022-10-23T00:24:20.278Z,79.75
2022-10-23T00:26:51.235Z,79.83
2022-10-23T00:29:19.895Z,79.88
2022-10-23T00:31:48.554Z,79.96
2022-10-23T00:34:19.794Z,79.89
2022-10-23T00:36:48.594Z,79.79
2022-10-23T00:39:18.031Z,79.80
2022-10-23T00:41:46.526Z,79.95
2022-10-23T00:44:18.771Z,79.87
2022-10-23T00:46:47.730Z,79.96
2022-10-23T00:49:17.124Z,80.11
2022-10-23T00:51:51.067Z,80.02
2022-10-23T00:54:25.114Z,79.92
2022-10-23T00:56:59.860Z,79.94
2022-10-23T00:59:30.111Z,79.88
2022-10-23T01:01:59.698Z,79.77
2022-10-23T01:04:29.569Z,79.91
2022-10-23T01:06:58.645Z,79.99
2022-10-23T01:09:27.496Z,79.86
2022-10-23T01:12:15.078Z,79.78
2022-10-23T01:15:04.040Z,79.83
2022-10-23T01:18:17.365Z,79.97
2022-10-23T01:21:04.307Z,79.93
2022-10-23T01:23:48.515Z,79.97
2022-10-23T01:26:29.694Z,80.10
2022-10-23T01:29:20.546Z,80.17
2022-10-23T01:31:56.445Z,80.01
2022-10-23T01:34:47.636Z,79.93
2022-10-23T01:37:23.636Z,79.89
2022-10-23T01:39:55.553Z,79.87
2022-10-23T01:42:30.727Z,79.91
2022-10-23T01:45:17.056Z,80.02
2022-10-23T01:47:45.951Z,80.08
2022-10-23T01:50:19.538Z,80.09
2022-10-23T01:52:49.901Z,80.07
2022-10-23T01:55:19.056Z,80.04
2022-10-23T01:57:49.583Z,79.99
2022-10-23T02:00:20.357Z,80.01
2022-10-23T02:02:56.693Z,80.11
2022-10-23T02:05:31.635Z,80.33
2022-10-23T02:08:02.074Z,80.51
2022-10-23T02:10:59.845Z,80.39
2022-10-23T02:13:52.105Z,80.45
2022-10-23T02:16:37.439Z,80.44
2022-10-23T02:19:44.334Z,80.47
2022-10-23T02:22:34.065Z,80.49
2022-10-23T02:25:13.972Z,80.44
2022-10-23T02:27:48.210Z,80.42
2022-10-23T02:30:19.809Z,80.38
2022-10-23T02:32:55.825Z,80.46
2022-10-23T02:35:25.638Z,80.42
2022-10-23T02:38:01.997Z,80.39
2022-10-23T02:40:42.437Z,80.42
2022-10-23T02:43:36.183Z,80.39
2022-10-23T02:46:42.110Z,80.40
2022-10-23T02:49:26.176Z,80.31
2022-10-23T02:52:12.368Z,80.46
2022-10-23T02:55:08.832Z,80.65
2022-10-23T02:58:00.314Z,80.58
2022-10-23T03:00:31.717Z,80.50
2022-10-23T03:03:12.165Z,80.63
2022-10-23T03:05:45.253Z,80.64
2022-10-23T03:08:16.049Z,80.74
2022-10-23T03:10:45.179Z,80.67
2022-10-23T03:13:13.712Z,80.70
2022-10-23T03:15:44.567Z,80.70
2022-10-23T03:18:15.369Z,80.72
2022-10-23T03:20:48.805Z,80.72
2022-10-23T03:23:17.423Z,80.82
2022-10-23T03:25:45.779Z,80.81
2022-10-23T03:28:25.991Z,80.93
2022-10-23T03:30:54.451Z,80.91
2022-10-23T03:33:23.376Z,80.82
2022-10-23T03:35:52.768Z,80.74
2022-10-23T03:38:21.618Z,80.70
2022-10-23T03:40:50.181Z,80.62
2022-10-23T03:43:19.145Z,80.54
2022-10-23T03:45:47.970Z,80.60
2022-10-23T03:48:17.657Z,80.74
2022-10-23T03:50:46.621Z,80.85
2022-10-23T03:53:15.244Z,80.85
2022-10-23T03:55:45.064Z,80.84
2022-10-23T03:58:14.248Z,80.66
2022-10-23T04:03:16.941Z,80.69
2022-10-23T04:05:45.529Z,80.78
2022-10-23T04:08:17.618Z,80.81
2022-10-23T04:10:51.993Z,81.02
2022-10-23T04:13:25.262Z,81.08
2022-10-23T04:15:54.607Z,80.95
2022-10-23T04:18:25.010Z,80.95
2022-10-23T04:20:53.945Z,80.91
2022-10-23T04:23:24.319Z,81.11
2022-10-23T04:25:56.637Z,81.29
2022-10-23T04:28:26.739Z,81.26
2022-10-23T04:30:56.806Z,81.20
2022-10-23T04:33:25.935Z,81.07
2022-10-23T04:35:54.908Z,81.04
2022-10-23T04:38:23.837Z,81.00
2022-10-23T04:40:52.826Z,81.10
2022-10-23T04:43:25.191Z,81.11
2022-10-23T04:45:53.696Z,81.15
2022-10-23T04:48:25.577Z,81.24
2022-10-23T04:51:16.122Z,81.11
2022-10-23T04:54:14.048Z,81.07
2022-10-23T04:57:08.788Z,81.19
2022-10-23T04:59:54.336Z,81.05
2022-10-23T05:02:24.915Z,80.97
2022-10-23T05:04:54.466Z,81.08
2022-10-23T05:07:50.170Z,81.18
2022-10-23T05:10:30.630Z,81.21
2022-10-23T05:13:20.965Z,81.30
2022-10-23T05:15:51.455Z,81.17
2022-10-23T05:18:45.617Z,81.16
2022-10-23T05:21:22.028Z,81.28
2022-10-23T05:23:53.282Z,81.45
2022-10-23T05:26:22.865Z,81.57
2022-10-23T05:28:54.160Z,81.51
2022-10-23T05:31:25.551Z,81.47
2022-10-23T05:33:57.440Z,81.37
2022-10-23T05:36:27.728Z,81.38
2022-10-23T05:38:59.645Z,81.45
2022-10-23T05:41:28.902Z,81.57
2022-10-23T05:44:00.213Z,81.60
2022-10-23T05:46:55.519Z,81.63
2022-10-23T05:49:44.477Z,81.53
2022-10-23T05:52:33.073Z,81.60
2022-10-23T05:55:08.069Z,81.62
2022-10-23T05:57:56.387Z,81.68
2022-10-23T06:00:48.145Z,81.61
2022-10-23T06:03:38.075Z,81.62
2022-10-23T06:06:08.246Z,81.71
2022-10-23T06:08:45.084Z,81.69
2022-10-23T06:11:15.625Z,81.69
2022-10-23T06:13:50.064Z,81.65
2022-10-23T06:16:25.769Z,81.61
2022-10-23T06:18:55.999Z,81.53
2022-10-23T06:21:27.536Z,81.52
2022-10-23T06:23:57.060Z,81.49
2022-10-23T06:26:32.873Z,81.36
2022-10-23T06:29:10.204Z,81.35
2022-10-23T06:31:39.525Z,81.40
2022-10-23T06:34:12.184Z,81.43
2022-10-23T06:36:41.458Z,81.61
2022-10-23T06:39:28.478Z,81.63
2022-10-23T06:42:15.393Z,81.35
2022-10-23T06:44:57.502Z,81.42
2022-10-23T06:47:55.360Z,81.26
2022-10-23T06:50:42.942Z,80.97
2022-10-23T06:53:16.846Z,80.73
2022-10-23T06:55:52.976Z,80.40
2022-10-23T06:58:28.194Z,80.59
2022-10-23T07:01:15.049Z,80.57
2022-10-23T07:03:45.372Z,80.55
2022-10-23T07:06:15.667Z,80.55
2022-10-23T07:08:44.335Z,80.40
2022-10-23T07:11:31.741Z,79.76
2022-10-23T07:14:00.400Z,79.50
2022-10-23T07:17:26.026Z,79.64
2022-10-23T07:20:13.808Z,79.84
2022-10-23T07:22:42.857Z,79.77
2022-10-23T07:25:17.133Z,79.31
2022-10-23T07:27:47.087Z,79.19
2022-10-23T07:30:16.932Z,79.08
2022-10-23T07:32:49.849Z,79.75
2022-10-23T07:35:42.741Z,79.74
2022-10-23T07:38:14.477Z,80.08
2022-10-23T07:40:49.730Z,80.18
2022-10-23T07:43:21.546Z,80.09
2022-10-23T07:45:50.615Z,79.89
2022-10-23T07:48:25.539Z,79.49
2022-10-23T07:51:02.088Z,79.25
2022-10-23T07:53:32.947Z,79.00
2022-10-23T07:56:17.893Z,78.07
2022-10-23T07:59:13.898Z,76.45
2022-10-23T08:01:44.076Z,77.14
2022-10-23T08:04:13.330Z,77.70
2022-10-23T08:06:53.240Z,76.83
2022-10-23T08:09:23.027Z,77.11
2022-10-23T08:11:51.933Z,77.32
2022-10-23T08:14:21.443Z,77.68
2022-10-23T08:16:51.025Z,77.56
2022-10-23T08:19:19.769Z,77.71
2022-10-23T08:21:49.804Z,77.50
2022-10-23T08:24:19.133Z,77.15
2022-10-23T08:26:51.015Z,77.25
2022-10-23T08:29:21.925Z,77.53
2022-10-23T08:31:56.573Z,77.65
2022-10-23T08:34:38.321Z,77.23
2022-10-23T08:37:07.450Z,77.30
2022-10-23T08:39:36.965Z,76.79
2022-10-23T08:42:25.032Z,76.60
2022-10-23T08:45:07.489Z,75.59
2022-10-23T08:47:55.050Z,75.33
2022-10-23T08:50:54.708Z,75.89
2022-10-23T08:53:47.434Z,75.58
2022-10-23T08:56:29.110Z,74.67
2022-10-23T08:59:23.430Z,74.88
2022-10-23T09:02:13.775Z,74.77
2022-10-23T09:04:48.204Z,74.59
2022-10-23T09:07:16.830Z,74.30
2022-10-23T09:09:51.848Z,73.81
2022-10-23T09:12:28.472Z,73.55
2022-10-23T09:15:21.719Z,72.73
2022-10-23T09:17:58.970Z,73.16
2022-10-23T09:20:38.290Z,72.60
2022-10-23T09:23:18.897Z,72.40
2022-10-23T09:25:57.261Z,72.40
2022-10-23T09:28:32.692Z,71.29
2022-10-23T09:31:10.121Z,70.61
2022-10-23T09:33:40.286Z,70.59
2022-10-23T09:36:14.346Z,70.48
2022-10-23T09:38:46.053Z,69.84
2022-10-23T09:41:21.304Z,68.80
2022-10-23T09:44:09.211Z,68.70
2022-10-23T09:46:42.390Z,68.57
2022-10-23T09:49:29.135Z,68.05
2022-10-23T09:52:02.304Z,68.33
2022-10-23T09:54:34.219Z,68.36
2022-10-23T09:57:34.730Z,68.11
2022-10-23T10:00:07.063Z,68.37
2022-10-23T10:02:44.733Z,68.02
2022-10-23T10:05:41.501Z,67.98
2022-10-23T10:08:25.417Z,67.48
2022-10-23T10:11:39.897Z,66.88
2022-10-23T10:14:36.628Z,66.72
2022-10-23T10:17:34.034Z,66.59
2022-10-23T10:20:23.890Z,66.75
2022-10-23T10:23:19.769Z,66.76
2022-10-23T10:25:59.949Z,67.08
2022-10-23T10:29:14.082Z,67.27
2022-10-23T10:31:43.014Z,67.02
2022-10-23T10:34:41.349Z,67.33
2022-10-23T10:37:38.967Z,67.26
2022-10-23T10:40:30.198Z,67.19
2022-10-23T10:43:23.221Z,67.52
2022-10-23T10:46:06.390Z,67.15
2022-10-23T10:49:02.774Z,67.05
2022-10-23T10:52:05.390Z,66.78
2022-10-23T10:54:56.383Z,66.80
2022-10-23T10:57:57.955Z,66.88
2022-10-23T11:00:32.151Z,67.02
2022-10-23T11:03:33.830Z,67.15
2022-10-23T11:06:11.168Z,67.19
2022-10-23T11:08:56.341Z,67.19
2022-10-23T11:11:35.956Z,67.17
2022-10-23T11:14:04.900Z,67.16
2022-10-23T11:16:37.755Z,66.94
2022-10-23T11:19:16.998Z,66.91
2022-10-23T11:21:52.184Z,66.96
2022-10-23T11:25:12.608Z,67.09
2022-10-23T11:27:54.198Z,67.05
2022-10-23T11:30:25.799Z,67.11
2022-10-23T11:33:32.610Z,66.97
2022-10-23T11:36:16.874Z,66.88
2022-10-23T11:38:51.997Z,67.06
2022-10-23T11:41:27.189Z,66.91
2022-10-23T11:44:06.589Z,67.02
2022-10-23T11:46:39.441Z,67.19
2022-10-23T11:49:22.637Z,67.24
2022-10-23T11:52:01.340Z,67.11
2022-10-23T11:54:30.703Z,66.98
2022-10-23T11:57:17.161Z,66.90
2022-10-23T11:59:46.144Z,66.91
2022-10-23T12:02:34.820Z,66.99
2022-10-23T12:05:31.514Z,66.90
2022-10-23T12:08:03.405Z,67.05
2022-10-23T12:10:44.315Z,67.02
2022-10-23T12:13:38.184Z,66.97
2022-10-23T12:16:11.072Z,67.09
2022-10-23T12:19:32.285Z,67.01
2022-10-23T12:22:02.844Z,67.16
2022-10-23T12:24:40.412Z,67.06
2022-10-23T12:27:19.807Z,67.11
2022-10-23T12:30:14.360Z,67.10
2022-10-23T12:32:59.230Z,66.93
2022-10-23T12:36:10.028Z,66.85
2022-10-23T12:38:49.022Z,66.93
2022-10-23T12:41:25.778Z,66.73
2022-10-23T12:44:04.514Z,66.59
2022-10-23T12:46:37.438Z,66.67
2022-10-23T12:49:15.985Z,66.43
2022-10-23T12:51:45.022Z,66.54
2022-10-23T12:54:17.523Z,66.42
2022-10-23T12:56:47.643Z,66.51
2022-10-23T12:59:26.820Z,66.42
2022-10-23T13:01:57.135Z,66.28
2022-10-23T13:04:35.676Z,66.26
2022-10-23T13:07:04.918Z,66.35
2022-10-23T13:09:41.400Z,66.17
2022-10-23T13:12:30.539Z,66.30
2022-10-23T13:15:07.591Z,66.14
2022-10-23T13:17:36.282Z,66.12
2022-10-23T13:20:16.989Z,66.17
2022-10-23T13:22:50.432Z,66.25
2022-10-23T13:25:35.009Z,66.23
2022-10-23T13:28:35.836Z,66.23
2022-10-23T13:31:11.544Z,66.28
2022-10-23T13:33:42.943Z,66.25
2022-10-23T13:36:15.599Z,66.27
2022-10-23T13:38:47.039Z,66.27
2022-10-23T13:41:20.866Z,66.28
2022-10-23T13:43:49.562Z,66.22
2022-10-23T13:46:23.976Z,66.17
2022-10-23T13:48:53.189Z,66.25
2022-10-23T13:51:38.776Z,66.31
2022-10-23T13:57:00.594Z,66.37
2022-10-23T13:59:29.255Z,66.43
2022-10-23T14:01:58.418Z,66.37
2022-10-23T14:04:28.010Z,66.31
2022-10-23T14:06:58.775Z,66.34
2022-10-23T14:09:27.509Z,66.34
2022-10-23T14:11:57.281Z,66.44
2022-10-23T14:14:26.121Z,66.37
2022-10-23T14:16:56.638Z,66.29
2022-10-23T14:19:34.971Z,66.36
2022-10-23T14:22:03.686Z,66.38
2022-10-23T14:24:32.438Z,66.40
2022-10-23T14:27:01.494Z,66.38
2022-10-23T14:29:30.234Z,66.34
2022-10-23T14:31:59.346Z,66.45
2022-10-23T14:34:28.677Z,66.46
2022-10-23T14:37:08.195Z,66.41
2022-10-23T14:39:37.958Z,66.30
2022-10-23T14:42:06.597Z,66.38
2022-10-23T14:44:36.286Z,66.45
2022-10-23T14:47:06.622Z,66.42
2022-10-23T14:49:36.027Z,66.37
2022-10-23T14:52:04.800Z,66.39
2022-10-23T14:54:35.902Z,66.44
2022-10-23T14:57:06.254Z,66.38
2022-10-23T14:59:35.188Z,66.52
2022-10-23T15:02:04.528Z,66.53
2022-10-23T15:04:33.180Z,66.54
2022-10-23T15:07:02.220Z,66.40
2022-10-23T15:09:37.393Z,66.48
2022-10-23T15:12:07.882Z,66.39
2022-10-23T15:14:36.907Z,66.37
2022-10-23T15:17:05.844Z,66.44
2022-10-23T15:19:35.061Z,66.58
2022-10-23T15:22:03.774Z,66.70
2022-10-23T15:24:33.048Z,66.72
2022-10-23T15:27:02.460Z,66.75
2022-10-23T15:29:31.231Z,66.77
2022-10-23T15:32:02.077Z,66.80
2022-10-23T15:34:32.932Z,66.81
2022-10-23T15:37:03.136Z,66.79
2022-10-23T15:39:36.020Z,66.90
2022-10-23T15:42:06.868Z,67.09
2022-10-23T15:44:35.864Z,67.02
2022-10-23T15:47:16.387Z,66.96
2022-10-23T15:49:46.963Z,67.03
2022-10-23T15:52:15.661Z,67.02
2022-10-23T15:54:48.867Z,67.06
2022-10-23T15:57:17.889Z,67.06
2022-10-23T15:59:47.230Z,67.00
2022-10-23T16:02:16.087Z,66.98
2022-10-23T16:04:45.062Z,67.07
2022-10-23T16:07:15.012Z,67.23
2022-10-23T16:09:43.766Z,67.16
2022-10-23T16:12:12.873Z,67.24
2022-10-23T16:14:42.115Z,67.29
2022-10-23T16:17:11.825Z,67.32
2022-10-23T16:19:41.287Z,67.24
2022-10-23T16:22:10.317Z,67.37
2022-10-23T16:24:39.587Z,67.52
2022-10-23T16:27:10.347Z,67.56
2022-10-23T16:29:39.964Z,67.56
2022-10-23T16:32:08.558Z,67.51
2022-10-23T16:34:37.883Z,67.67
2022-10-23T16:37:06.785Z,67.64
2022-10-23T16:39:52.972Z,67.81
2022-10-23T16:42:42.562Z,67.85
2022-10-23T16:45:21.499Z,67.94
2022-10-23T16:47:51.671Z,67.99
2022-10-23T16:50:21.389Z,67.99
2022-10-23T16:52:53.271Z,67.89
2022-10-23T16:55:25.121Z,67.98
2022-10-23T16:57:54.227Z,68.01
2022-10-23T17:00:23.603Z,68.15
2022-10-23T17:06:30.559Z,68.31
2022-10-23T17:12:49.531Z,68.57
2022-10-23T17:15:52.159Z,68.61
2022-10-23T17:19:51.067Z,68.58
2022-10-23T17:23:34.193Z,68.53
2022-10-23T17:26:13.163Z,68.67
2022-10-23T17:29:07.311Z,68.81
2022-10-23T17:38:54.476Z,69.10
2022-10-23T17:42:09.798Z,69.15
2022-10-23T17:45:00.423Z,68.99
2022-10-23T17:54:50.628Z,69.15
2022-10-23T18:01:22.382Z,69.45
2022-10-23T18:04:21.598Z,69.70
2022-10-23T18:10:10.508Z,69.69
2022-10-23T18:13:09.962Z,69.81
2022-10-23T18:16:34.165Z,69.77
2022-10-23T18:22:50.461Z,70.08
2022-10-23T18:29:26.514Z,70.25
2022-10-23T18:35:50.653Z,70.36
2022-10-23T18:41:57.602Z,70.53
2022-10-23T18:45:03.160Z,70.63
2022-10-23T18:54:17.086Z,70.60
2022-10-23T18:57:38.772Z,70.65
2022-10-23T19:00:50.077Z,70.73
2022-10-23T19:03:51.094Z,70.95
2022-10-23T19:06:57.050Z,70.99
2022-10-23T19:13:00.771Z,70.70
2022-10-23T19:22:26.441Z,71.24
2022-10-23T19:25:45.439Z,71.37
2022-10-23T19:32:16.448Z,71.31
2022-10-23T19:35:37.911Z,71.42
2022-10-23T19:38:40.106Z,71.48
2022-10-23T19:41:56.129Z,71.57
2022-10-23T19:44:59.112Z,71.56
2022-10-23T19:47:52.442Z,71.59
2022-10-23T19:51:13.458Z,71.51
2022-10-23T19:54:21.408Z,71.49
2022-10-23T19:57:37.687Z,71.49
2022-10-23T20:00:51.436Z,71.78
2022-10-23T20:03:57.800Z,71.97
2022-10-23T20:07:21.874Z,72.05
2022-10-23T20:10:21.574Z,72.28
2022-10-23T20:16:42.869Z,72.28
2022-10-23T20:22:57.099Z,72.30
2022-10-23T20:26:01.305Z,72.30
2022-10-23T20:29:11.229Z,72.32
2022-10-23T20:32:24.537Z,72.35
2022-10-23T20:35:39.035Z,72.34
2022-10-23T20:38:38.014Z,72.27
2022-10-23T20:41:47.626Z,72.32
2022-10-23T20:44:51.678Z,72.36
2022-10-23T20:47:59.744Z,72.44
2022-10-23T20:51:34.798Z,72.38
2022-10-23T20:58:10.380Z,72.46
2022-10-23T21:04:47.160Z,72.41
2022-10-23T21:07:54.309Z,72.41
2022-10-23T21:11:07.798Z,72.45
2022-10-23T21:17:42.877Z,72.64
2022-10-23T21:23:35.227Z,72.82
2022-10-23T21:29:39.078Z,72.70
2022-10-23T21:32:43.207Z,72.74
2022-10-23T21:35:34.063Z,72.69
2022-10-23T21:41:49.744Z,72.71
2022-10-23T21:44:39.857Z,72.60
2022-10-23T21:47:31.281Z,72.69
2022-10-23T21:57:35.546Z,72.66
2022-10-23T22:00:57.003Z,72.72
2022-10-23T22:03:59.942Z,72.71
2022-10-23T22:06:45.733Z,72.64
2022-10-23T22:13:16.898Z,72.66
2022-10-23T22:16:21.390Z,72.64
2022-10-23T22:22:39.763Z,72.70
2022-10-23T22:28:39.270Z,72.65
2022-10-23T22:34:56.258Z,72.86
2022-10-23T22:41:32.172Z,72.74
2022-10-23T22:51:20.287Z,72.57
2022-10-23T22:54:04.319Z,72.57
2022-10-23T22:57:12.427Z,72.56
2022-10-23T23:00:01.458Z,72.48
2022-10-23T23:03:03.314Z,72.54
2022-10-23T23:06:55.080Z,72.51
2022-10-23T23:13:23.013Z,72.15
2022-10-23T23:16:43.032Z,72.03
2022-10-23T23:22:56.839Z,72.13
2022-10-23T23:26:05.740Z,72.05
2022-10-23T23:29:01.206Z,72.13
2022-10-23T23:31:50.168Z,72.03
2022-10-23T23:34:38.577Z,71.98
2022-10-23T23:37:37.332Z,71.97
2022-10-23T23:40:29.212Z,71.94
2022-10-23T23:43:24.541Z,72.02
2022-10-23T23:49:19.431Z,72.05
2022-10-23T23:51:46.663Z,72.08
2022-10-23T23:54:13.830Z,72.05
2022-10-23T23:56:41.468Z,72.02
2022-10-23T23:59:08.871Z,72.04
